Garwood, Texas
Current Conditions -  °F | °C
As of 8:35 AM on Wednesday 22 Oct 2014 (Local Time) from KELA Reporting Station
Clear Clear  
Wind Chill: 64°   Ceiling: Unl
Heat Index: 64°   Visibility: 10mi
Dew Point: 62°   Wind: 6mph
Humidity: 93%   Direction: 40°NE
Pressure: 30.08"   Gusts: NA
Location:  29.45°N, 96.4°W
Report Text: KELA 221335Z AUTO 04005KT 10SM CLR 18/17 A3008 RMK AO2 T01780167
Loading
Personal Weather Stations






























Interactive Weather Map
Tropical Storm Tracking
New forecast layout! Learn more

10-Day Weather Forecast

Advertisements
Track Severe Weather on mobile